Time;durP1;ratioP1;P1;durP2;ratioP2;P2;SDS_P1;SDS_P2;PMS_P1;PMS_P2;Temp;Humidity;BMP_temperature;BMP_pressure;BME280_temperature;BME280_humidity;BME280_pressure;Samples;Min_cycle;Max_cycle;Signal;HPM_P1;HPM_P2
2022/09/04 15:49:58;;;;;;;10.88;9.52;;;28.00;99.90;;;;;;4899092;29;20497;-93
2022/09/04 15:52:36;;;;;;;10.57;9.43;;;28.20;99.90;;;;;;4872391;29;20075;-95
2022/09/04 15:55:09;;;;;;;14.10;10.38;;;28.30;99.90;;;;;;4873292;29;20045;-92
2022/09/04 15:57:45;;;;;;;11.88;9.45;;;28.40;99.90;;;;;;4879979;29;20029;-92
2022/09/04 16:00:22;;;;;;;11.20;9.80;;;28.40;99.90;;;;;;4869997;29;20132;-94
2022/09/04 16:03:01;;;;;;;10.77;9.73;;;28.30;99.90;;;;;;4870325;29;20053;-94
2022/09/04 16:05:52;;;;;;;13.80;10.02;;;28.10;99.90;;;;;;4870030;29;20041;-92
2022/09/04 16:08:43;;;;;;;12.32;10.10;;;27.90;99.90;;;;;;4869880;29;20505;-93
2022/09/04 16:11:19;;;;;;;10.88;9.70;;;27.70;99.90;;;;;;4870644;29;20462;-93
2022/09/04 16:13:49;;;;;;;11.63;9.70;;;27.50;99.90;;;;;;4869884;29;20041;-93
2022/09/04 16:16:24;;;;;;;11.25;10.02;;;27.30;99.90;;;;;;4863308;29;20045;-93
2022/09/04 16:19:07;;;;;;;11.05;10.10;;;27.30;99.90;;;;;;4847389;29;20057;-93
2022/09/04 16:22:03;;;;;;;11.13;9.98;;;27.20;99.90;;;;;;4848044;29;20061;-94
2022/09/04 16:24:44;;;;;;;13.45;10.50;;;27.20;99.90;;;;;;4805711;29;20073;-94
2022/09/04 16:27:16;;;;;;;12.45;9.50;;;27.40;99.90;;;;;;4863022;29;20030;-93
2022/09/04 16:29:49;;;;;;;13.73;10.30;;;27.60;99.90;;;;;;4848826;29;20095;-93
2022/09/04 16:32:23;;;;;;;11.32;9.52;;;27.70;99.90;;;;;;4863166;29;20204;-93
2022/09/04 16:35:16;;;;;;;;;;;27.90;99.90;;;;;;4847995;29;20037;-94
2022/09/04 16:37:55;;;;;;;13.55;9.57;;;27.90;99.90;;;;;;4847710;29;19928;-94
2022/09/04 16:40:26;;;;;;;18.02;10.60;;;28.10;99.90;;;;;;4847639;29;20034;-94
2022/09/04 16:43:18;;;;;;;16.55;10.32;;;28.10;99.90;;;;;;4847416;29;20046;-93
2022/09/04 16:45:50;;;;;;;12.20;9.60;;;28.00;99.90;;;;;;4865152;29;20373;-93
2022/09/04 16:48:46;;;;;;;10.48;9.57;;;27.90;99.90;;;;;;4877533;29;20045;-94
2022/09/04 16:55:23;;;;;;;10.57;9.60;;;27.70;99.90;;;;;;4848599;29;20038;-94
2022/09/04 16:58:22;;;;;;;12.82;9.20;;;27.50;99.90;;;;;;4845717;29;20046;-93
2022/09/04 17:00:57;;;;;;;12.20;9.02;;;27.40;99.90;;;;;;4834965;29;20427;-93
2022/09/04 17:03:34;;;;;;;17.70;10.15;;;27.30;99.90;;;;;;4813614;29;20034;-93
2022/09/04 17:10:04;;;;;;;11.15;9.18;;;27.00;99.90;;;;;;4908821;23;20099;-94
2022/09/04 17:12:47;;;;;;;13.18;8.85;;;26.90;99.90;;;;;;4885160;29;20025;-93
2022/09/04 17:15:30;;;;;;;12.05;8.05;;;26.70;99.90;;;;;;4884855;29;20041;-93
2022/09/04 17:17:58;;;;;;;10.85;8.23;;;26.60;99.90;;;;;;4884661;29;20047;-94
2022/09/04 17:20:42;;;;;;;8.68;7.78;;;26.50;99.90;;;;;;4870354;29;20503;-93
2022/09/04 17:23:13;;;;;;;13.43;8.47;;;26.40;99.90;;;;;;4884677;29;20033;-94
2022/09/04 17:25:56;;;;;;;17.95;7.85;;;26.20;99.90;;;;;;4869219;29;20276;-94
2022/09/04 17:28:41;;;;;;;14.65;8.18;;;26.00;99.90;;;;;;4884619;29;20084;-92
2022/09/04 17:31:16;;;;;;;14.30;8.07;;;26.00;99.90;;;;;;4884595;29;20049;-93
2022/09/04 17:33:50;;;;;;;21.90;7.80;;;26.00;99.90;;;;;;4869260;29;20060;-93
2022/09/04 17:36:19;;;;;;;21.50;8.25;;;25.90;99.90;;;;;;4884834;29;20405;-93
2022/09/04 17:38:58;;;;;;;17.60;8.10;;;25.90;99.90;;;;;;4868895;29;20052;-94
2022/09/04 17:41:30;;;;;;;10.73;6.70;;;25.90;99.90;;;;;;4884718;29;20064;-93
2022/09/04 17:44:28;;;;;;;13.80;7.35;;;25.80;99.90;;;;;;4869197;29;20036;-93
2022/09/04 17:47:08;;;;;;;9.85;6.65;;;25.80;99.90;;;;;;4869051;29;20037;-91
2022/09/04 17:49:43;;;;;;;16.20;6.90;;;25.80;99.90;;;;;;4868907;29;20044;-93
2022/09/04 17:52:19;;;;;;;14.35;6.90;;;25.80;99.90;;;;;;4884311;29;20028;-93
2022/09/04 17:54:48;;;;;;;13.90;7.20;;;25.80;99.90;;;;;;4869443;29;20033;-94
2022/09/04 17:57:34;;;;;;;12.48;6.60;;;25.70;99.90;;;;;;4868780;29;20096;-92
2022/09/04 18:00:05;;;;;;;11.02;6.55;;;25.70;99.90;;;;;;4885672;29;20145;-92
2022/09/04 18:02:54;;;;;;;7.28;6.07;;;25.80;99.90;;;;;;4884635;29;20395;-93
2022/09/04 18:05:27;;;;;;;7.10;6.43;;;25.80;99.90;;;;;;4855344;29;20032;-94
2022/09/04 18:08:10;;;;;;;8.68;6.63;;;25.80;99.90;;;;;;4884007;29;20056;-93
2022/09/04 18:11:01;;;;;;;11.90;7.80;;;25.90;99.90;;;;;;4884929;29;20435;-95
2022/09/04 18:14:00;;;;;;;17.55;7.63;;;26.00;99.90;;;;;;4868450;29;20033;-94
2022/09/04 18:16:35;;;;;;;12.57;9.07;;;25.90;99.90;;;;;;4865985;29;20513;-92
2022/09/04 18:19:34;;;;;;;15.40;8.85;;;25.90;99.90;;;;;;4868058;29;20095;-92
2022/09/04 18:22:23;;;;;;;14.80;8.30;;;25.90;99.90;;;;;;4884025;29;20050;-92
2022/09/04 18:24:58;;;;;;;13.43;7.35;;;25.90;99.90;;;;;;4868395;29;20398;-92
2022/09/04 18:27:35;;;;;;;15.68;8.77;;;25.90;99.90;;;;;;4868165;29;20029;-91
2022/09/04 18:30:05;;;;;;;12.60;7.25;;;25.90;99.90;;;;;;4868149;29;20040;-92
2022/09/04 18:32:44;;;;;;;12.80;7.47;;;25.90;99.90;;;;;;4868297;29;20033;-91
2022/09/04 18:35:34;;;;;;;23.15;9.50;;;25.90;99.90;;;;;;4883486;29;20032;-93
2022/09/04 18:38:14;;;;;;;15.20;8.15;;;25.80;99.90;;;;;;4883241;29;20048;-92
2022/09/04 18:40:52;;;;;;;16.77;8.43;;;25.80;99.90;;;;;;4868455;29;20115;-92
2022/09/04 18:43:25;;;;;;;14.35;8.10;;;25.70;99.90;;;;;;4883385;29;20036;-92
2022/09/04 18:45:55;;;;;;;14.98;8.32;;;25.60;99.90;;;;;;4883204;29;20036;-92
2022/09/04 18:48:26;;;;;;;12.02;7.55;;;25.50;99.90;;;;;;4870220;29;20029;-92
2022/09/04 18:51:03;;;;;;;8.63;6.30;;;25.50;99.90;;;;;;4876487;29;20119;-92
2022/09/04 18:53:43;;;;;;;9.43;6.65;;;25.40;99.90;;;;;;4883985;29;20029;-92
2022/09/04 18:56:25;;;;;;;9.23;6.60;;;25.40;99.90;;;;;;4867735;29;20611;-92
2022/09/04 18:59:18;;;;;;;8.65;6.72;;;25.40;99.90;;;;;;4882907;29;20052;-91
2022/09/04 19:02:17;;;;;;;8.43;5.65;;;25.30;99.90;;;;;;4867862;29;20036;-91
2022/09/04 19:05:01;;;;;;;9.93;6.20;;;25.30;99.90;;;;;;4883316;29;20052;-93
2022/09/04 19:07:36;;;;;;;10.13;6.23;;;25.20;99.90;;;;;;4882644;29;20032;-92
2022/09/04 19:10:24;;;;;;;6.93;5.57;;;25.20;99.90;;;;;;4867656;29;20037;-95
2022/09/04 19:13:01;;;;;;;10.32;6.35;;;25.20;99.90;;;;;;4861257;29;20040;-92
2022/09/04 19:15:41;;;;;;;12.23;7.22;;;25.20;99.90;;;;;;4882950;29;20119;-94
2022/09/04 19:18:44;;;;;;;18.10;9.18;;;25.10;99.90;;;;;;4867221;29;20055;-93
2022/09/04 19:21:11;;;;;;;13.98;8.02;;;25.20;99.90;;;;;;4867640;29;20036;-92
2022/09/04 19:23:44;;;;;;;15.73;8.60;;;25.10;99.90;;;;;;4867273;29;20115;-91
2022/09/04 19:26:21;;;;;;;15.10;7.95;;;25.10;99.90;;;;;;4882210;29;20040;-93
2022/09/04 19:28:58;;;;;;;14.75;7.78;;;25.10;99.90;;;;;;4867299;29;20296;-94
2022/09/04 19:31:49;;;;;;;11.13;6.55;;;25.10;99.90;;;;;;4882723;29;20032;-93
2022/09/04 19:34:45;;;;;;;11.75;6.28;;;25.10;99.90;;;;;;4882787;29;20124;-92
2022/09/04 19:37:25;;;;;;;8.82;5.93;;;25.10;99.90;;;;;;4867153;29;20106;-92
2022/09/04 19:40:06;;;;;;;9.77;6.15;;;25.10;99.90;;;;;;4864454;29;20068;-92
2022/09/04 19:42:44;;;;;;;9.38;5.28;;;25.10;99.90;;;;;;4871689;29;20052;-93
2022/09/04 19:45:25;;;;;;;9.07;5.22;;;25.10;99.90;;;;;;4864647;29;20041;-92
2022/09/04 19:48:03;;;;;;;10.30;5.30;;;25.00;99.90;;;;;;4864915;29;20041;-91
2022/09/04 19:50:33;;;;;;;5.70;4.63;;;25.00;99.90;;;;;;4865304;29;20219;-92
2022/09/04 19:53:34;;;;;;;10.93;6.20;;;24.90;99.90;;;;;;4849962;29;20029;-91
2022/09/04 19:56:12;;;;;;;6.55;5.15;;;24.90;99.90;;;;;;4775418;29;20051;-91
2022/09/04 19:58:46;;;;;;;8.90;5.20;;;24.90;99.90;;;;;;4775107;29;20050;-91
2022/09/04 20:01:22;;;;;;;9.10;5.80;;;24.90;99.90;;;;;;4790463;29;20030;-92
2022/09/04 20:04:02;;;;;;;8.55;5.18;;;24.80;99.90;;;;;;4775216;29;20111;-90
2022/09/04 20:06:46;;;;;;;7.65;5.53;;;24.80;99.90;;;;;;4775328;29;20070;-91
2022/09/04 20:09:25;;;;;;;9.85;6.07;;;24.70;99.90;;;;;;4774880;29;20054;-91
2022/09/04 20:12:19;;;;;;;10.10;5.43;;;24.70;99.90;;;;;;4775222;29;20498;-93
2022/09/04 20:15:16;;;;;;;6.68;5.80;;;24.80;99.90;;;;;;4757558;30;20043;-91
2022/09/04 20:18:10;;;;;;;10.43;5.85;;;24.70;99.90;;;;;;4757446;30;20043;-91
2022/09/04 20:20:47;;;;;;;7.63;6.00;;;24.70;99.90;;;;;;4757222;30;20040;-92
2022/09/04 20:23:32;;;;;;;8.07;5.90;;;24.70;99.90;;;;;;4757155;30;20138;-91
2022/09/04 20:26:10;;;;;;;9.02;5.25;;;24.70;99.90;;;;;;4757292;30;20100;-91
2022/09/04 20:28:53;;;;;;;10.73;5.90;;;24.70;99.90;;;;;;4772067;30;20031;-92
2022/09/04 20:31:30;;;;;;;8.55;5.35;;;24.70;99.90;;;;;;4764211;29;20039;-93
2022/09/04 20:34:04;;;;;;;9.23;5.40;;;24.70;99.90;;;;;;4790008;29;20035;-92
2022/09/04 20:36:36;;;;;;;11.40;5.60;;;24.70;99.90;;;;;;4778168;29;20064;-92
2022/09/04 20:39:12;;;;;;;5.63;4.82;;;24.70;99.90;;;;;;4796711;29;20046;-93
2022/09/04 20:42:05;;;;;;;12.38;5.53;;;24.70;99.90;;;;;;4778344;29;20039;-91
2022/09/04 20:44:50;;;;;;;7.47;5.05;;;24.60;99.90;;;;;;4778345;29;20047;-90
2022/09/04 20:47:28;;;;;;;10.80;5.82;;;24.70;99.90;;;;;;4778383;29;20031;-92
2022/09/04 20:50:20;;;;;;;13.27;5.32;;;24.70;99.90;;;;;;4792876;29;20063;-92
2022/09/04 20:53:14;;;;;;;6.50;4.90;;;24.70;99.90;;;;;;4829286;29;20037;-92
2022/09/04 20:55:59;;;;;;;9.88;5.40;;;24.60;99.90;;;;;;4848153;29;20090;-92
2022/09/04 20:58:36;;;;;;;8.77;4.95;;;24.60;99.90;;;;;;4832936;29;20106;-92
2022/09/04 21:01:09;;;;;;;8.35;4.78;;;24.50;99.90;;;;;;4847918;29;20026;-92
2022/09/04 21:04:00;;;;;;;6.82;4.63;;;24.50;99.90;;;;;;4832938;29;20093;-94
2022/09/04 21:06:57;;;;;;;9.98;5.85;;;24.50;99.90;;;;;;4849915;29;20074;-93
2022/09/04 21:10:00;;;;;;;6.38;4.53;;;24.50;99.90;;;;;;4849893;29;20053;-93
2022/09/04 21:12:52;;;;;;;7.57;4.45;;;24.50;99.90;;;;;;4793789;29;20042;-93
2022/09/04 21:15:51;;;;;;;12.07;5.03;;;24.40;99.90;;;;;;4786447;29;20031;-93
2022/09/04 21:18:45;;;;;;;6.20;4.53;;;24.40;99.90;;;;;;4806239;29;20116;-93
2022/09/04 21:21:45;;;;;;;9.45;4.28;;;24.40;99.90;;;;;;4801979;29;20521;-93
2022/09/04 21:24:55;;;;;;;8.60;4.78;;;24.30;99.90;;;;;;4800330;29;20190;-93
2022/09/04 21:27:39;;;;;;;12.73;5.05;;;24.30;99.90;;;;;;4788401;29;20110;-94
2022/09/04 21:30:17;;;;;;;5.97;4.07;;;24.30;99.90;;;;;;4803145;29;20045;-93
2022/09/04 21:32:54;;;;;;;7.85;4.30;;;24.30;99.90;;;;;;4786377;29;20138;-93
2022/09/04 21:36:01;;;;;;;6.70;4.10;;;24.20;99.90;;;;;;4786038;29;20477;-93
2022/09/04 21:39:02;;;;;;;6.72;4.15;;;24.20;99.90;;;;;;4788668;29;20059;-93
2022/09/04 21:42:05;;;;;;;5.65;4.05;;;24.20;99.90;;;;;;4777654;29;20065;-92
2022/09/04 21:44:55;;;;;;;12.90;4.50;;;24.20;99.90;;;;;;4777178;29;20043;-92
2022/09/04 21:48:00;;;;;;;4.13;3.55;;;24.10;99.90;;;;;;4792031;29;20043;-93
2022/09/04 21:50:33;;;;;;;4.53;3.88;;;24.10;99.90;;;;;;4850839;29;20033;-93
2022/09/04 21:53:37;;;;;;;6.22;4.00;;;24.00;99.90;;;;;;4852443;29;20044;-93
2022/09/04 21:59:45;;;;;;;5.43;4.45;;;24.00;99.90;;;;;;5299151;23;20065;-93
2022/09/04 22:02:33;;;;;;;6.82;4.35;;;23.90;99.90;;;;;;4872772;29;20041;-93
2022/09/04 22:04:59;;;;;;;4.40;4.00;;;23.90;99.90;;;;;;4944940;23;20108;-93
2022/09/04 22:13:13;;;;;;;4.15;3.63;;;23.90;99.90;;;;;;5691923;23;20036;-93
2022/09/04 22:16:12;;;;;;;4.82;3.90;;;23.80;99.90;;;;;;4906948;29;20024;-94
2022/09/04 22:19:11;;;;;;;4.82;3.33;;;23.80;99.90;;;;;;4873797;29;20048;-93
2022/09/04 22:22:41;;;;;;;5.80;3.58;;;23.80;99.90;;;;;;4878801;29;20048;-94
2022/09/04 22:25:40;;;;;;;6.68;3.60;;;23.70;99.90;;;;;;4891023;29;20501;-94
2022/09/04 22:28:40;;;;;;;4.88;3.38;;;23.70;99.90;;;;;;4878300;29;20124;-94
2022/09/04 22:31:07;;;;;;;6.00;3.72;;;23.70;99.90;;;;;;4883760;29;20084;-93
2022/09/04 22:34:05;;;;;;;5.38;3.85;;;23.70;99.90;;;;;;4868305;29;20028;-94
2022/09/04 22:36:53;;;;;;;5.35;3.67;;;23.70;99.90;;;;;;4868997;29;20036;-93
2022/09/04 22:39:38;;;;;;;4.10;3.70;;;23.70;99.90;;;;;;4868189;29;20044;-91
2022/09/04 22:42:26;;;;;;;5.75;3.97;;;23.70;99.90;;;;;;4867774;29;20072;-92
2022/09/04 22:45:39;;;;;;;5.25;4.20;;;23.70;99.90;;;;;;4867969;29;20406;-91
2022/09/04 22:48:26;;;;;;;6.63;4.32;;;23.70;99.90;;;;;;4882996;29;20040;-92
2022/09/04 22:51:07;;;;;;;5.68;3.83;;;23.70;99.90;;;;;;4883335;29;20044;-94
2022/09/04 22:53:43;;;;;;;7.13;4.45;;;23.60;99.90;;;;;;4867669;29;20032;-92
2022/09/04 22:56:24;;;;;;;7.32;4.45;;;23.60;99.90;;;;;;4883271;29;20509;-92
2022/09/04 22:59:22;;;;;;;8.07;4.90;;;23.60;99.90;;;;;;4882970;29;20040;-91
2022/09/04 23:02:12;;;;;;;5.75;4.45;;;23.50;99.90;;;;;;4883046;29;20123;-93
2022/09/04 23:04:55;;;;;;;5.15;4.35;;;23.50;99.90;;;;;;4867719;29;20064;-92
2022/09/04 23:07:31;;;;;;;6.18;4.80;;;23.40;99.90;;;;;;4867602;29;20063;-92
2022/09/04 23:10:25;;;;;;;5.57;4.82;;;23.40;99.90;;;;;;4867268;29;20039;-93
2022/09/04 23:13:31;;;;;;;6.00;4.63;;;23.40;99.90;;;;;;4882707;29;20515;-92
2022/09/04 23:16:10;;;;;;;10.10;4.50;;;23.40;99.90;;;;;;4867426;29;20376;-93
2022/09/04 23:19:01;;;;;;;7.45;4.57;;;23.40;99.90;;;;;;4867718;29;20406;-92
2022/09/04 23:21:29;;;;;;;5.18;4.28;;;23.50;99.90;;;;;;4867670;29;20084;-92
2022/09/04 23:24:18;;;;;;;7.78;4.85;;;23.40;99.90;;;;;;4867866;29;20032;-93
2022/09/04 23:27:00;;;;;;;7.70;5.13;;;23.40;99.90;;;;;;4885510;29;20127;-93
2022/09/04 23:29:51;;;;;;;9.65;6.15;;;23.40;99.90;;;;;;4870470;29;20032;-92
2022/09/04 23:32:50;;;;;;;6.80;5.50;;;23.40;99.90;;;;;;4875857;29;20108;-93
2022/09/04 23:35:33;;;;;;;6.38;4.72;;;23.40;99.90;;;;;;4868504;29;20040;-93
2022/09/04 23:38:32;;;;;;;9.20;5.30;;;23.40;99.90;;;;;;4880185;29;20136;-94
2022/09/04 23:41:36;;;;;;;8.88;5.78;;;23.40;99.90;;;;;;4870330;29;20036;-93
2022/09/04 23:44:18;;;;;;;11.85;6.50;;;23.40;99.90;;;;;;4868812;29;20031;-93
2022/09/04 23:47:04;;;;;;;9.40;6.40;;;23.40;99.90;;;;;;4867131;29;20029;-92
2022/09/04 23:49:46;;;;;;;10.05;6.25;;;23.40;99.90;;;;;;4868540;29;20032;-92
2022/09/04 23:56:37;;;;;;;12.10;7.50;;;23.40;99.90;;;;;;4850441;29;20046;-93
2022/09/04 23:59:41;;;;;;;11.27;7.13;;;23.40;99.90;;;;;;4771083;29;20055;-95
